createdAt,value
2023-04-05T00:00:23.552Z,100857.00
2023-04-05T00:05:31.108Z,100851.59
2023-04-05T00:10:32.652Z,100855.03
2023-04-05T00:15:34.225Z,100846.06
2023-04-05T00:20:37.462Z,100841.53
2023-04-05T00:25:38.869Z,100836.28
2023-04-05T00:30:40.709Z,100838.38
2023-04-05T00:35:42.326Z,100838.38
2023-04-05T00:40:43.960Z,100839.03
2023-04-05T00:45:46.376Z,100835.72
2023-04-05T00:50:50.038Z,100828.69
2023-04-05T00:55:54.086Z,100834.78
2023-04-05T01:01:18.584Z,100821.56
2023-04-05T01:06:42.182Z,100826.81
2023-04-05T01:11:47.271Z,100815.09
2023-04-05T01:16:49.890Z,100816.72
2023-04-05T01:22:14.116Z,100816.91
2023-04-05T01:27:36.409Z,100798.38
2023-04-05T01:32:54.227Z,100808.47
2023-04-05T01:38:00.890Z,100805.66
2023-04-05T01:43:03.230Z,100799.50
2023-04-05T01:48:04.841Z,100807.28
2023-04-05T01:53:09.292Z,100795.72
2023-04-05T01:58:10.830Z,100805.28
2023-04-05T02:03:12.404Z,100794.25
2023-04-05T02:08:14.366Z,100795.63
2023-04-05T02:13:16.042Z,100797.50
2023-04-05T02:18:22.434Z,100792.03
2023-04-05T02:23:24.051Z,100785.41
2023-04-05T02:28:26.049Z,100783.63
2023-04-05T02:33:27.888Z,100786.72
2023-04-05T02:38:29.706Z,100768.13
2023-04-05T02:43:31.157Z,100762.91
2023-04-05T02:48:32.853Z,100763.06
2023-04-05T02:53:35.352Z,100766.66
2023-04-05T02:58:36.784Z,100773.88
2023-04-05T03:03:40.258Z,100771.22
2023-04-05T03:08:48.584Z,100764.38
2023-04-05T03:13:50.186Z,100753.75
2023-04-05T03:18:51.600Z,100751.88
2023-04-05T03:23:53.038Z,100754.63
2023-04-05T03:28:54.480Z,100760.38
2023-04-05T03:33:56.063Z,100755.63
2023-04-05T03:38:57.536Z,100744.00
2023-04-05T03:43:59.261Z,100746.44
2023-04-05T03:49:01.390Z,100752.34
2023-04-05T03:54:02.866Z,100750.91
2023-04-05T03:59:04.335Z,100752.72
2023-04-05T04:04:05.842Z,100756.56
2023-04-05T04:09:07.294Z,100769.09
2023-04-05T04:14:08.713Z,100771.00
2023-04-05T04:19:10.209Z,100768.16
2023-04-05T04:24:18.629Z,100767.56
2023-04-05T04:29:20.206Z,100765.94
2023-04-05T04:34:21.666Z,100771.16
2023-04-05T04:39:26.797Z,100776.47
2023-04-05T04:44:28.307Z,100783.50
2023-04-05T04:49:33.086Z,100777.63
2023-04-05T04:54:36.055Z,100780.22
2023-04-05T04:59:37.602Z,100778.75
2023-04-05T05:04:41.483Z,100778.28
2023-04-05T05:09:43.375Z,100777.91
2023-04-05T05:14:44.786Z,100770.25
2023-04-05T05:19:46.246Z,100776.75
2023-04-05T05:24:48.134Z,100786.56
2023-04-05T05:29:49.646Z,100788.94
2023-04-05T05:34:51.105Z,100789.53
2023-04-05T05:39:52.565Z,100792.66
2023-04-05T05:44:54.105Z,100783.53
2023-04-05T05:49:56.206Z,100789.81
2023-04-05T05:54:57.620Z,100795.16
2023-04-05T05:59:59.025Z,100786.69
2023-04-05T06:05:02.192Z,100785.56
2023-04-05T06:10:07.839Z,100791.19
2023-04-05T06:15:09.734Z,100787.34
2023-04-05T06:20:11.834Z,100782.47
2023-04-05T06:25:13.444Z,100784.78
2023-04-05T06:30:15.027Z,100785.56
2023-04-05T06:35:16.556Z,100780.81
2023-04-05T06:40:18.333Z,100771.19
2023-04-05T06:45:19.885Z,100784.19
2023-04-05T06:50:21.429Z,100781.16
2023-04-05T06:55:22.911Z,100776.13
2023-04-05T07:00:24.404Z,100785.19
2023-04-05T07:05:26.060Z,100773.44
2023-04-05T07:10:27.528Z,100769.50
2023-04-05T07:15:28.982Z,100779.84
2023-04-05T07:20:30.436Z,100777.69
2023-04-05T07:25:32.306Z,100780.53
2023-04-05T07:30:33.730Z,100775.38
2023-04-05T07:35:35.321Z,100774.38
2023-04-05T07:40:37.029Z,100784.34
2023-04-05T07:45:38.480Z,100783.25
2023-04-05T07:50:41.216Z,100788.06
2023-04-05T07:55:43.145Z,100795.56
2023-04-05T08:00:44.579Z,100799.88
2023-04-05T08:05:46.035Z,100796.34
2023-04-05T08:10:47.482Z,100798.78
2023-04-05T08:15:48.969Z,100795.56
2023-04-05T08:20:57.209Z,100798.38
2023-04-05T08:25:58.665Z,100797.31
2023-04-05T08:31:00.369Z,100795.69
2023-04-05T08:36:06.233Z,100780.09
2023-04-05T08:41:19.044Z,100784.06
2023-04-05T08:46:22.064Z,100769.81
2023-04-05T08:51:25.872Z,100767.00
2023-04-05T08:56:32.217Z,100760.78
2023-04-05T09:01:37.048Z,100771.88
2023-04-05T09:06:39.140Z,100757.78
2023-04-05T09:11:40.968Z,100766.91
2023-04-05T09:16:42.788Z,100764.38
2023-04-05T09:22:02.144Z,100757.72
2023-04-05T09:27:13.341Z,100756.81
2023-04-05T09:32:18.166Z,100759.03
2023-04-05T09:37:20.921Z,100752.41
2023-04-05T09:42:26.069Z,100755.22
2023-04-05T09:47:32.470Z,100750.63
2023-04-05T09:52:34.152Z,100741.22
2023-04-05T09:57:37.739Z,100745.91
2023-04-05T10:02:39.953Z,100748.56
2023-04-05T10:07:42.993Z,100738.97
2023-04-05T10:12:46.718Z,100734.06
2023-04-05T10:18:06.524Z,100728.97
2023-04-05T10:23:12.685Z,100726.50
2023-04-05T10:28:36.274Z,100738.03
2023-04-05T10:33:46.424Z,100729.34
2023-04-05T10:39:04.194Z,100713.94
2023-04-05T10:44:18.835Z,100719.56
2023-04-05T10:49:37.663Z,100707.06
2023-04-05T10:54:40.282Z,100707.06
2023-04-05T10:59:45.138Z,100698.16
2023-04-05T11:04:46.966Z,100687.59
2023-04-05T11:09:57.559Z,100694.50
2023-04-05T11:15:36.597Z,100696.84
2023-04-05T11:20:44.038Z,100687.53
2023-04-05T11:25:54.169Z,100679.81
2023-04-05T11:30:57.316Z,100683.81
2023-04-05T11:36:03.124Z,100676.25
2023-04-05T11:41:17.862Z,100686.72
2023-04-05T11:46:21.317Z,100681.00
2023-04-05T11:51:24.466Z,100692.28
2023-04-05T11:56:26.111Z,100679.56
2023-04-05T12:01:27.575Z,100681.53
2023-04-05T12:06:29.009Z,100688.34
2023-04-05T12:11:33.329Z,100675.50
2023-04-05T12:16:34.766Z,100670.78
2023-04-05T12:21:36.837Z,100660.91
2023-04-05T12:26:38.700Z,100658.72
2023-04-05T12:31:45.193Z,100659.53
2023-04-05T12:36:46.784Z,100664.03
2023-04-05T12:41:59.505Z,100666.84
2023-04-05T12:47:09.198Z,100658.63
2023-04-05T12:52:11.580Z,100654.22
2023-04-05T12:57:14.275Z,100650.63
2023-04-05T13:02:15.778Z,100649.50
2023-04-05T13:07:17.298Z,100658.69
2023-04-05T13:12:18.910Z,100652.59
2023-04-05T13:17:21.363Z,100652.09
2023-04-05T13:22:22.808Z,100656.22
2023-04-05T13:27:24.256Z,100657.09
2023-04-05T13:32:25.891Z,100660.06
2023-04-05T13:37:27.428Z,100662.19
2023-04-05T13:42:28.898Z,100672.28
2023-04-05T13:47:30.397Z,100670.66
2023-04-05T13:52:31.844Z,100673.25
2023-04-05T13:57:33.292Z,100663.00
2023-04-05T14:02:34.959Z,100656.50
2023-04-05T14:07:36.954Z,100645.59
2023-04-05T14:12:39.277Z,100649.34
2023-04-05T14:17:40.890Z,100653.41
2023-04-05T14:22:42.382Z,100654.16
2023-04-05T14:27:43.849Z,100642.63
2023-04-05T14:32:45.341Z,100644.44
2023-04-05T14:37:46.806Z,100640.84
2023-04-05T14:42:50.218Z,100643.16
2023-04-05T14:47:51.994Z,100651.13
2023-04-05T14:52:53.960Z,100647.13
2023-04-05T14:57:55.411Z,100642.69
2023-04-05T15:02:56.985Z,100637.56
2023-04-05T15:07:58.509Z,100633.56
2023-04-05T15:13:00.344Z,100633.03
2023-04-05T15:18:02.521Z,100638.75
2023-04-05T15:23:04.022Z,100629.22
2023-04-05T15:28:06.995Z,100628.19
2023-04-05T15:33:08.631Z,100632.88
2023-04-05T15:38:10.217Z,100629.84
2023-04-05T15:43:11.686Z,100625.91
2023-04-05T15:48:13.878Z,100632.78
2023-04-05T15:53:15.611Z,100630.72
2023-04-05T15:58:17.062Z,100639.97
2023-04-05T16:03:18.628Z,100637.97
2023-04-05T16:08:20.087Z,100631.91
2023-04-05T16:13:21.683Z,100641.72
2023-04-05T16:18:24.324Z,100629.44
2023-04-05T16:23:25.885Z,100645.81
2023-04-05T16:28:27.332Z,100636.81
2023-04-05T16:33:28.732Z,100641.50
2023-04-05T16:38:30.184Z,100641.66
2023-04-05T16:43:31.634Z,100644.69
2023-04-05T16:48:33.075Z,100645.72
2023-04-05T16:53:34.524Z,100647.94
2023-04-05T16:58:36.003Z,100640.75
2023-04-05T17:03:37.688Z,100632.72
2023-04-05T17:08:39.148Z,100642.44
2023-04-05T17:13:41.899Z,100640.72
2023-04-05T17:18:43.356Z,100633.00
2023-04-05T17:23:44.821Z,100639.31
2023-04-05T17:28:46.604Z,100644.47
2023-04-05T17:33:48.895Z,100648.25
2023-04-05T17:38:50.712Z,100654.09
2023-04-05T17:43:52.180Z,100668.91
2023-04-05T17:48:54.157Z,100664.44
2023-04-05T17:53:57.433Z,100669.38
2023-04-05T17:58:58.878Z,100680.25
2023-04-05T18:04:01.197Z,100683.09
2023-04-05T18:09:03.668Z,100684.16
2023-04-05T18:14:05.515Z,100685.06
2023-04-05T18:19:07.416Z,100700.19
2023-04-05T18:24:10.613Z,100694.19
2023-04-05T18:29:12.287Z,100700.75
2023-04-05T18:34:13.757Z,100714.16
2023-04-05T18:39:15.713Z,100713.50
2023-04-05T18:44:17.168Z,100707.06
2023-04-05T18:49:19.201Z,100730.34
2023-04-05T18:54:20.807Z,100734.06
2023-04-05T18:59:22.643Z,100725.66
2023-04-05T19:04:24.126Z,100727.50
2023-04-05T19:09:26.542Z,100730.09
2023-04-05T19:14:28.048Z,100727.16
2023-04-05T19:19:29.448Z,100725.91
2023-04-05T19:24:30.850Z,100729.00
2023-04-05T19:29:34.572Z,100728.97
2023-04-05T19:34:37.981Z,100731.22
2023-04-05T19:39:39.558Z,100741.88
2023-04-05T19:44:49.598Z,100730.81
2023-04-05T19:49:52.630Z,100731.97
2023-04-05T19:54:54.463Z,100733.59
2023-04-05T19:59:55.963Z,100728.25
2023-04-05T20:04:57.385Z,100721.53
2023-04-05T20:09:58.827Z,100721.88
2023-04-05T20:15:00.275Z,100716.78
2023-04-05T20:20:01.811Z,100721.22
2023-04-05T20:25:31.555Z,100702.53
2023-04-05T20:30:33.051Z,100702.53
2023-04-05T20:35:36.191Z,100701.38
2023-04-05T20:40:37.642Z,100700.81
2023-04-05T20:45:39.068Z,100688.34
2023-04-05T20:50:40.931Z,100689.22
2023-04-05T20:55:42.429Z,100688.59
2023-04-05T21:00:43.903Z,100689.03
2023-04-05T21:05:45.455Z,100686.66
2023-04-05T21:10:46.969Z,100692.09
2023-04-05T21:15:49.034Z,100685.03
2023-04-05T21:20:52.126Z,100689.75
2023-04-05T21:25:57.452Z,100688.34
2023-04-05T21:30:58.971Z,100684.53
2023-04-05T21:36:00.587Z,100695.25
2023-04-05T21:41:02.081Z,100691.88
2023-04-05T21:46:03.492Z,100694.59
2023-04-05T21:51:04.923Z,100679.34
2023-04-05T21:56:06.427Z,100674.09
2023-04-05T22:01:07.887Z,100683.19
2023-04-05T22:06:09.309Z,100679.69
2023-04-05T22:11:10.731Z,100674.38
2023-04-05T22:16:12.509Z,100689.53
2023-04-05T22:21:13.972Z,100687.00
2023-04-05T22:26:15.373Z,100685.47
2023-04-05T22:31:17.246Z,100684.94
2023-04-05T22:36:18.674Z,100685.03
2023-04-05T22:41:20.136Z,100682.63
2023-04-05T22:46:21.669Z,100690.16
2023-04-05T22:51:23.186Z,100685.16
2023-04-05T22:56:24.671Z,100689.84
2023-04-05T23:01:26.582Z,100699.63
2023-04-05T23:06:28.055Z,100701.66
2023-04-05T23:11:29.471Z,100698.38
2023-04-05T23:16:30.903Z,100696.75
2023-04-05T23:21:32.392Z,100689.69
2023-04-05T23:26:34.468Z,100691.63
2023-04-05T23:31:35.919Z,100695.44
2023-04-05T23:36:37.657Z,100688.34
2023-04-05T23:41:39.350Z,100688.56
2023-04-05T23:46:40.902Z,100687.16
2023-04-05T23:51:42.896Z,100687.31
2023-04-05T23:56:44.683Z,100687.41
